sensor_id;sensor_type;location;lat;lon;timestamp;pressure;altitude;pressure_sealevel;temperature;humidity
1401;BME280;46518;48.842;8.926;2022-12-16T00:01:17;95897.41;;;-0.78;83.13
1401;BME280;46518;48.842;8.926;2022-12-16T00:03:46;95903.38;;;-0.71;82.53
1401;BME280;46518;48.842;8.926;2022-12-16T00:06:20;95896.63;;;-0.79;83.46
1401;BME280;46518;48.842;8.926;2022-12-16T00:08:48;95899.41;;;-0.80;82.98
1401;BME280;46518;48.842;8.926;2022-12-16T00:11:18;95904.56;;;-0.67;82.78
1401;BME280;46518;48.842;8.926;2022-12-16T00:13:47;95907.13;;;-0.67;82.88
1401;BME280;46518;48.842;8.926;2022-12-16T00:16:18;95911.28;;;-0.66;82.99
1401;BME280;46518;48.842;8.926;2022-12-16T00:18:47;95910.88;;;-0.63;82.94
1401;BME280;46518;48.842;8.926;2022-12-16T00:21:19;95903.91;;;-0.62;82.95
1401;BME280;46518;48.842;8.926;2022-12-16T00:23:49;95904.56;;;-0.67;83.13
1401;BME280;46518;48.842;8.926;2022-12-16T00:26:17;95907.50;;;-0.63;83.04
1401;BME280;46518;48.842;8.926;2022-12-16T00:28:45;95908.09;;;-0.55;83.25
1401;BME280;46518;48.842;8.926;2022-12-16T00:31:13;95900.78;;;-0.64;82.97
1401;BME280;46518;48.842;8.926;2022-12-16T00:33:42;95906.72;;;-0.64;83.22
1401;BME280;46518;48.842;8.926;2022-12-16T00:36:11;95914.88;;;-0.67;83.18
1401;BME280;46518;48.842;8.926;2022-12-16T00:38:41;95912.66;;;-0.57;83.09
1401;BME280;46518;48.842;8.926;2022-12-16T00:41:09;95909.69;;;-0.60;83.12
1401;BME280;46518;48.842;8.926;2022-12-16T00:43:37;95911.66;;;-0.56;82.87
1401;BME280;46518;48.842;8.926;2022-12-16T00:46:05;95918.19;;;-0.53;83.06
1401;BME280;46518;48.842;8.926;2022-12-16T00:48:34;95915.69;;;-0.67;82.96
1401;BME280;46518;48.842;8.926;2022-12-16T00:51:02;95919.47;;;-0.69;82.86
1401;BME280;46518;48.842;8.926;2022-12-16T00:53:33;95931.19;;;-0.73;82.79
1401;BME280;46518;48.842;8.926;2022-12-16T00:56:26;95936.16;;;-0.78;83.00
1401;BME280;46518;48.842;8.926;2022-12-16T00:58:54;95938.97;;;-0.87;82.56
1401;BME280;46518;48.842;8.926;2022-12-16T01:01:23;95943.31;;;-0.80;83.16
1401;BME280;46518;48.842;8.926;2022-12-16T01:03:54;95940.72;;;-0.74;83.17
1401;BME280;46518;48.842;8.926;2022-12-16T01:06:23;95939.13;;;-0.68;83.10
1401;BME280;46518;48.842;8.926;2022-12-16T01:08:53;95935.16;;;-0.71;82.96
1401;BME280;46518;48.842;8.926;2022-12-16T01:11:21;95942.66;;;-0.62;83.01
1401;BME280;46518;48.842;8.926;2022-12-16T01:13:51;95937.72;;;-0.71;82.74
1401;BME280;46518;48.842;8.926;2022-12-16T01:16:21;95936.94;;;-0.64;82.99
1401;BME280;46518;48.842;8.926;2022-12-16T01:18:49;95940.91;;;-0.62;83.28
1401;BME280;46518;48.842;8.926;2022-12-16T01:21:18;95950.22;;;-0.61;82.96
1401;BME280;46518;48.842;8.926;2022-12-16T01:23:46;95945.66;;;-0.59;82.91
1401;BME280;46518;48.842;8.926;2022-12-16T01:26:16;95943.44;;;-0.55;82.73
1401;BME280;46518;48.842;8.926;2022-12-16T01:28:47;95943.06;;;-0.59;83.26
1401;BME280;46518;48.842;8.926;2022-12-16T01:31:18;95950.84;;;-0.66;82.79
1401;BME280;46518;48.842;8.926;2022-12-16T01:33:47;95957.78;;;-0.66;83.25
1401;BME280;46518;48.842;8.926;2022-12-16T01:36:16;95952.44;;;-0.71;82.78
1401;BME280;46518;48.842;8.926;2022-12-16T01:39:03;95950.88;;;-0.72;83.41
1401;BME280;46518;48.842;8.926;2022-12-16T01:41:50;95955.03;;;-0.64;83.10
1401;BME280;46518;48.842;8.926;2022-12-16T01:44:20;95958.22;;;-0.69;83.08
1401;BME280;46518;48.842;8.926;2022-12-16T01:46:52;95958.16;;;-0.62;82.88
1401;BME280;46518;48.842;8.926;2022-12-16T01:49:25;95960.16;;;-0.58;82.90
1401;BME280;46518;48.842;8.926;2022-12-16T01:51:57;95961.75;;;-0.63;82.78
1401;BME280;46518;48.842;8.926;2022-12-16T01:54:29;95963.97;;;-0.67;83.07
1401;BME280;46518;48.842;8.926;2022-12-16T01:57:01;95966.94;;;-0.70;82.99
1401;BME280;46518;48.842;8.926;2022-12-16T01:59:33;95966.19;;;-0.77;83.38
1401;BME280;46518;48.842;8.926;2022-12-16T02:02:04;95967.38;;;-0.93;83.27
1401;BME280;46518;48.842;8.926;2022-12-16T02:04:33;95975.94;;;-1.06;82.71
1401;BME280;46518;48.842;8.926;2022-12-16T02:07:10;95983.28;;;-1.03;83.43
1401;BME280;46518;48.842;8.926;2022-12-16T02:09:38;95963.84;;;-1.32;84.05
1401;BME280;46518;48.842;8.926;2022-12-16T02:12:20;95990.44;;;-1.25;83.69
1401;BME280;46518;48.842;8.926;2022-12-16T02:15:13;95994.59;;;-1.44;83.66
1401;BME280;46518;48.842;8.926;2022-12-16T02:17:54;95996.75;;;-1.47;84.46
1401;BME280;46518;48.842;8.926;2022-12-16T02:30:04;95990.97;;;-1.76;86.64
1401;BME280;46518;48.842;8.926;2022-12-16T02:32:43;95990.56;;;-1.86;87.53
1401;BME280;46518;48.842;8.926;2022-12-16T02:35:24;95995.19;;;-1.62;87.27
1401;BME280;46518;48.842;8.926;2022-12-16T02:38:04;95993.59;;;-1.49;87.21
1401;BME280;46518;48.842;8.926;2022-12-16T02:40:38;95990.25;;;-1.37;87.01
1401;BME280;46518;48.842;8.926;2022-12-16T02:43:17;95989.63;;;-1.25;86.55
1401;BME280;46518;48.842;8.926;2022-12-16T02:45:50;95989.44;;;-1.24;86.48
1401;BME280;46518;48.842;8.926;2022-12-16T02:48:21;95993.22;;;-1.13;86.31
1401;BME280;46518;48.842;8.926;2022-12-16T02:50:50;95999.59;;;-1.09;86.22
1401;BME280;46518;48.842;8.926;2022-12-16T02:53:20;96006.34;;;-1.01;86.30
1401;BME280;46518;48.842;8.926;2022-12-16T02:55:58;96000.38;;;-1.02;85.70
1401;BME280;46518;48.842;8.926;2022-12-16T02:58:34;96007.72;;;-0.99;85.71
1401;BME280;46518;48.842;8.926;2022-12-16T03:01:08;96005.72;;;-0.90;85.44
1401;BME280;46518;48.842;8.926;2022-12-16T03:03:44;96006.13;;;-0.93;85.57
1401;BME280;46518;48.842;8.926;2022-12-16T03:06:17;96018.81;;;-0.85;85.52
1401;BME280;46518;48.842;8.926;2022-12-16T03:08:52;96021.63;;;-0.80;85.18
1401;BME280;46518;48.842;8.926;2022-12-16T03:11:22;96016.06;;;-0.77;85.36
1401;BME280;46518;48.842;8.926;2022-12-16T03:13:54;96019.41;;;-0.76;85.03
1401;BME280;46518;48.842;8.926;2022-12-16T03:16:26;96013.25;;;-0.95;84.79
1401;BME280;46518;48.842;8.926;2022-12-16T03:19:02;96020.41;;;-1.11;84.51
1401;BME280;46518;48.842;8.926;2022-12-16T03:21:35;96026.78;;;-1.40;85.56
1401;BME280;46518;48.842;8.926;2022-12-16T03:24:07;96034.69;;;-1.41;86.37
1401;BME280;46518;48.842;8.926;2022-12-16T03:26:43;96030.72;;;-1.57;86.32
1401;BME280;46518;48.842;8.926;2022-12-16T03:29:16;96028.53;;;-1.47;86.23
1401;BME280;46518;48.842;8.926;2022-12-16T03:31:50;96030.09;;;-1.53;86.95
1401;BME280;46518;48.842;8.926;2022-12-16T03:34:30;96033.03;;;-1.62;87.18
1401;BME280;46518;48.842;8.926;2022-12-16T03:37:02;96027.09;;;-1.63;86.83
1401;BME280;46518;48.842;8.926;2022-12-16T03:39:33;96032.06;;;-1.61;86.73
1401;BME280;46518;48.842;8.926;2022-12-16T03:42:02;96040.38;;;-1.79;87.86
1401;BME280;46518;48.842;8.926;2022-12-16T03:44:34;96035.56;;;-1.82;87.75
1401;BME280;46518;48.842;8.926;2022-12-16T03:47:02;96037.22;;;-1.75;87.61
1401;BME280;46518;48.842;8.926;2022-12-16T03:49:32;96048.47;;;-1.89;89.12
1401;BME280;46518;48.842;8.926;2022-12-16T03:52:00;96050.63;;;-1.92;88.28
1401;BME280;46518;48.842;8.926;2022-12-16T03:54:28;96059.53;;;-1.95;88.79
1401;BME280;46518;48.842;8.926;2022-12-16T03:56:57;96052.16;;;-2.05;89.24
1401;BME280;46518;48.842;8.926;2022-12-16T03:59:25;96063.84;;;-2.09;89.31
1401;BME280;46518;48.842;8.926;2022-12-16T04:01:53;96055.56;;;-1.98;89.64
1401;BME280;46518;48.842;8.926;2022-12-16T04:04:22;96059.53;;;-1.95;88.96
1401;BME280;46518;48.842;8.926;2022-12-16T04:06:52;96059.75;;;-1.97;90.00
1401;BME280;46518;48.842;8.926;2022-12-16T04:09:34;96059.09;;;-2.05;89.66
1401;BME280;46518;48.842;8.926;2022-12-16T04:12:03;96065.06;;;-1.98;89.08
1401;BME280;46518;48.842;8.926;2022-12-16T04:14:49;96075.50;;;-2.20;89.77
1401;BME280;46518;48.842;8.926;2022-12-16T04:17:34;96074.84;;;-1.87;89.25
1401;BME280;46518;48.842;8.926;2022-12-16T04:20:24;96069.78;;;-1.67;89.37
1401;BME280;46518;48.842;8.926;2022-12-16T04:23:15;96064.28;;;-1.44;88.49
1401;BME280;46518;48.842;8.926;2022-12-16T04:26:27;96067.25;;;-1.40;88.35
1401;BME280;46518;48.842;8.926;2022-12-16T04:28:55;96078.38;;;-1.40;88.30
1401;BME280;46518;48.842;8.926;2022-12-16T11:15:35;96552.88;;;-1.37;70.23
1401;BME280;46518;48.842;8.926;2022-12-16T11:19:21;96525.56;;;-1.46;69.33
1401;BME280;46518;48.842;8.926;2022-12-16T11:26:47;96551.97;;;-1.22;67.40
1401;BME280;46518;48.842;8.926;2022-12-16T11:30:02;96529.91;;;-1.25;67.92
1401;BME280;46518;48.842;8.926;2022-12-16T12:23:39;96595.75;;;-1.87;65.17
1401;BME280;46518;48.842;8.926;2022-12-16T12:26:58;96620.94;;;-1.89;65.63
1401;BME280;46518;48.842;8.926;2022-12-16T12:30:10;96626.00;;;-1.81;65.69
1401;BME280;46518;48.842;8.926;2022-12-16T12:33:32;96627.69;;;-1.88;64.84
1401;BME280;46518;48.842;8.926;2022-12-16T12:36:38;96623.41;;;-1.81;65.83
1401;BME280;46518;48.842;8.926;2022-12-16T12:39:56;96629.19;;;-1.93;64.94
1401;BME280;46518;48.842;8.926;2022-12-16T12:43:11;96630.63;;;-2.06;65.19
1401;BME280;46518;48.842;8.926;2022-12-16T12:46:40;96624.31;;;-2.03;64.85
1401;BME280;46518;48.842;8.926;2022-12-16T12:50:16;96628.56;;;-1.96;65.40
1401;BME280;46518;48.842;8.926;2022-12-16T12:57:24;96613.81;;;-1.87;65.92
1401;BME280;46518;48.842;8.926;2022-12-16T13:00:46;96640.13;;;-1.62;65.98
1401;BME280;46518;48.842;8.926;2022-12-16T13:04:30;96638.50;;;-1.63;65.84
1401;BME280;46518;48.842;8.926;2022-12-16T13:12:34;96642.78;;;-1.70;63.85
1401;BME280;46518;48.842;8.926;2022-12-16T13:15:34;96643.78;;;-1.86;65.37
1401;BME280;46518;48.842;8.926;2022-12-16T13:18:29;96650.88;;;-1.88;65.76
1401;BME280;46518;48.842;8.926;2022-12-16T13:21:47;96646.63;;;-1.81;65.98
1401;BME280;46518;48.842;8.926;2022-12-16T19:03:02;97077.09;;;-1.86;77.50
1401;BME280;46518;48.842;8.926;2022-12-16T19:06:11;97071.28;;;-1.88;77.56
1401;BME280;46518;48.842;8.926;2022-12-16T19:09:15;97105.56;;;-1.71;77.51
1401;BME280;46518;48.842;8.926;2022-12-16T19:12:17;97087.75;;;-1.89;77.14
1401;BME280;46518;48.842;8.926;2022-12-16T19:15:12;97093.72;;;-1.97;77.73
1401;BME280;46518;48.842;8.926;2022-12-16T19:18:30;97094.56;;;-2.04;77.99
1401;BME280;46518;48.842;8.926;2022-12-16T19:21:29;97115.00;;;-1.94;78.13
1401;BME280;46518;48.842;8.926;2022-12-16T19:24:29;97111.66;;;-2.11;77.77
1401;BME280;46518;48.842;8.926;2022-12-16T19:27:43;97111.31;;;-2.08;78.23
1401;BME280;46518;48.842;8.926;2022-12-16T19:30:41;97136.59;;;-1.96;78.10
1401;BME280;46518;48.842;8.926;2022-12-16T19:33:58;97120.00;;;-2.01;78.02
1401;BME280;46518;48.842;8.926;2022-12-16T19:37:00;97149.47;;;-1.96;77.83
1401;BME280;46518;48.842;8.926;2022-12-16T19:39:59;97136.97;;;-2.07;78.05
1401;BME280;46518;48.842;8.926;2022-12-16T19:43:01;97129.25;;;-2.31;78.53
1401;BME280;46518;48.842;8.926;2022-12-16T19:45:59;97130.53;;;-2.35;78.35
1401;BME280;46518;48.842;8.926;2022-12-16T19:49:33;97145.69;;;-2.24;78.70
1401;BME280;46518;48.842;8.926;2022-12-16T19:52:29;97144.56;;;-2.22;79.06
1401;BME280;46518;48.842;8.926;2022-12-16T19:55:34;97143.09;;;-2.16;79.24
1401;BME280;46518;48.842;8.926;2022-12-16T19:58:39;97138.09;;;-2.26;79.22
1401;BME280;46518;48.842;8.926;2022-12-16T20:01:37;97159.19;;;-2.06;79.62
1401;BME280;46518;48.842;8.926;2022-12-16T20:04:38;97159.84;;;-2.12;79.00
1401;BME280;46518;48.842;8.926;2022-12-16T20:07:40;97149.22;;;-2.17;79.05
1401;BME280;46518;48.842;8.926;2022-12-16T20:10:35;97164.81;;;-2.10;78.76
1401;BME280;46518;48.842;8.926;2022-12-16T20:13:32;97169.31;;;-1.96;78.53
1401;BME280;46518;48.842;8.926;2022-12-16T20:16:58;97185.91;;;-1.90;77.97
1401;BME280;46518;48.842;8.926;2022-12-16T20:19:53;97193.50;;;-1.97;78.05
1401;BME280;46518;48.842;8.926;2022-12-16T20:22:47;97193.34;;;-2.04;78.21
1401;BME280;46518;48.842;8.926;2022-12-16T20:25:43;97205.59;;;-2.06;78.22
1401;BME280;46518;48.842;8.926;2022-12-16T20:28:48;97203.50;;;-2.19;78.96
1401;BME280;46518;48.842;8.926;2022-12-16T20:31:41;97193.53;;;-2.30;79.35
1401;BME280;46518;48.842;8.926;2022-12-16T20:34:34;97187.25;;;-2.35;79.44
1401;BME280;46518;48.842;8.926;2022-12-16T20:37:48;97192.59;;;-2.37;79.60
1401;BME280;46518;48.842;8.926;2022-12-16T20:40:55;97201.59;;;-2.41;79.54
1401;BME280;46518;48.842;8.926;2022-12-16T20:43:51;97198.38;;;-2.43;80.25
1401;BME280;46518;48.842;8.926;2022-12-16T20:51:13;97213.19;;;-2.37;80.13
1401;BME280;46518;48.842;8.926;2022-12-16T20:58:37;97224.47;;;-2.13;79.73
1401;BME280;46518;48.842;8.926;2022-12-16T21:01:39;97230.91;;;-2.01;79.68
1401;BME280;46518;48.842;8.926;2022-12-16T21:04:45;97238.13;;;-1.88;79.58
1401;BME280;46518;48.842;8.926;2022-12-16T21:07:53;97233.44;;;-1.85;79.26
1401;BME280;46518;48.842;8.926;2022-12-16T21:10:47;97255.72;;;-1.84;78.95
1401;BME280;46518;48.842;8.926;2022-12-16T21:13:45;97252.19;;;-1.99;78.71
1401;BME280;46518;48.842;8.926;2022-12-16T21:16:44;97252.00;;;-2.06;78.78
1401;BME280;46518;48.842;8.926;2022-12-16T21:19:42;97257.00;;;-2.12;78.53
1401;BME280;46518;48.842;8.926;2022-12-16T21:23:01;97256.53;;;-2.24;78.56
1401;BME280;46518;48.842;8.926;2022-12-16T21:26:06;97253.78;;;-2.23;78.52
1401;BME280;46518;48.842;8.926;2022-12-16T21:29:39;97242.34;;;-2.28;78.73
1401;BME280;46518;48.842;8.926;2022-12-16T21:32:48;97264.44;;;-2.01;78.88
1401;BME280;46518;48.842;8.926;2022-12-16T21:36:01;97264.09;;;-1.98;79.28
1401;BME280;46518;48.842;8.926;2022-12-16T21:39:12;97279.75;;;-1.91;78.97
1401;BME280;46518;48.842;8.926;2022-12-16T21:42:33;97275.03;;;-1.88;78.89
1401;BME280;46518;48.842;8.926;2022-12-16T21:45:53;97264.09;;;-1.98;78.69
1401;BME280;46518;48.842;8.926;2022-12-16T21:49:01;97276.34;;;-2.00;78.32
1401;BME280;46518;48.842;8.926;2022-12-16T21:52:38;97288.44;;;-2.17;78.88
1401;BME280;46518;48.842;8.926;2022-12-16T21:55:37;97280.88;;;-2.27;79.20
1401;BME280;46518;48.842;8.926;2022-12-16T21:59:03;97312.41;;;-2.33;79.27
1401;BME280;46518;48.842;8.926;2022-12-16T22:06:04;97316.00;;;-2.09;79.90
1401;BME280;46518;48.842;8.926;2022-12-16T22:09:03;97330.81;;;-2.11;79.47
1401;BME280;46518;48.842;8.926;2022-12-16T22:16:39;97327.06;;;-2.42;80.17
1401;BME280;46518;48.842;8.926;2022-12-16T22:19:55;97333.69;;;-2.39;79.73
1401;BME280;46518;48.842;8.926;2022-12-16T23:09:00;97400.41;;;-3.49;82.71
1401;BME280;46518;48.842;8.926;2022-12-16T23:17:40;97403.22;;;-3.42;82.42
1401;BME280;46518;48.842;8.926;2022-12-16T23:26:26;97390.78;;;-3.47;82.89
1401;BME280;46518;48.842;8.926;2022-12-16T23:30:04;97400.06;;;-3.28;83.06
1401;BME280;46518;48.842;8.926;2022-12-16T23:34:13;97404.81;;;-3.15;82.58
1401;BME280;46518;48.842;8.926;2022-12-16T23:50:46;97394.34;;;-3.83;78.59
